Aviation Digital Data Service (ADDS)

Output produced by METARs form (0341 UTC 26 April 2019)
found at http://www.aviationweather.gov/metar/data/
 
Forecast for: UKLI (IVANO-FRANKIVSK , UA)
Text: TAF UKLI 260202Z 2603/2612 VRB01MPS 2100 BR BKN020
Forecast period: 0300 to 1200 UTC 26 April 2019
Forecast type: FROM: standard forecast or significant change
Winds: variable direction winds at 2 MPH (2 knots; 1.0 m/s)
Visibility: 1.30 miles (2.09 km)
Ceiling: 2000 feet AGL
Clouds: broken clouds at 2000 feet AGL
Weather: BR  (mist)
Text: TEMPO 2603/2606 0400 FG VV003
Forecast period: 0300 to 0600 UTC 26 April 2019
Forecast type: TEMPORARY: The following changes expected for less than half the time period
Visibility: 0.25 miles (0.40 km)
Ceiling: indefinite ceiling with vertical visibility of 300 feet AGL
Clouds: obscured sky
Weather: FG  (fog)